sensor_id;sensor_type;location;lat;lon;timestamp;pressure;altitude;pressure_sealevel;temperature;humidity
3590;BME280;1809;48.470;9.226;2022-07-29T00:01:17;96673.16;;;18.10;100.00
3590;BME280;1809;48.470;9.226;2022-07-29T00:03:42;96682.19;;;18.14;100.00
3590;BME280;1809;48.470;9.226;2022-07-29T00:06:08;96669.06;;;18.16;100.00
3590;BME280;1809;48.470;9.226;2022-07-29T00:08:33;96673.59;;;18.12;100.00
3590;BME280;1809;48.470;9.226;2022-07-29T00:10:58;96672.47;;;18.13;100.00
3590;BME280;1809;48.470;9.226;2022-07-29T00:13:24;96660.84;;;18.13;100.00
3590;BME280;1809;48.470;9.226;2022-07-29T00:15:49;96658.59;;;18.15;100.00
3590;BME280;1809;48.470;9.226;2022-07-29T00:18:14;96653.78;;;18.08;100.00
3590;BME280;1809;48.470;9.226;2022-07-29T00:20:40;96650.38;;;18.11;100.00
3590;BME280;1809;48.470;9.226;2022-07-29T00:23:05;96654.56;;;18.09;100.00
3590;BME280;1809;48.470;9.226;2022-07-29T00:25:30;96658.50;;;18.11;100.00
3590;BME280;1809;48.470;9.226;2022-07-29T00:27:56;96657.34;;;18.12;100.00
3590;BME280;1809;48.470;9.226;2022-07-29T00:30:22;96656.66;;;18.15;100.00
3590;BME280;1809;48.470;9.226;2022-07-29T00:32:47;96647.00;;;18.14;100.00
3590;BME280;1809;48.470;9.226;2022-07-29T00:35:12;96652.63;;;18.09;100.00
3590;BME280;1809;48.470;9.226;2022-07-29T00:37:56;96651.06;;;18.08;100.00
3590;BME280;1809;48.470;9.226;2022-07-29T00:40:21;96645.66;;;18.08;100.00
3590;BME280;1809;48.470;9.226;2022-07-29T00:42:48;96650.59;;;18.06;100.00
3590;BME280;1809;48.470;9.226;2022-07-29T00:45:15;96647.03;;;18.02;100.00
3590;BME280;1809;48.470;9.226;2022-07-29T00:47:41;96640.28;;;17.96;100.00
3590;BME280;1809;48.470;9.226;2022-07-29T00:50:08;96642.19;;;17.96;100.00
3590;BME280;1809;48.470;9.226;2022-07-29T00:52:36;96628.78;;;17.99;100.00
3590;BME280;1809;48.470;9.226;2022-07-29T00:55:07;96629.00;;;17.94;100.00
3590;BME280;1809;48.470;9.226;2022-07-29T00:57:33;96626.75;;;17.96;100.00
3590;BME280;1809;48.470;9.226;2022-07-29T00:59:58;96623.34;;;17.99;100.00
3590;BME280;1809;48.470;9.226;2022-07-29T01:02:23;96620.53;;;17.96;100.00
3590;BME280;1809;48.470;9.226;2022-07-29T01:04:49;96612.06;;;17.97;100.00
3590;BME280;1809;48.470;9.226;2022-07-29T01:07:16;96607.13;;;17.99;100.00
3590;BME280;1809;48.470;9.226;2022-07-29T01:09:42;96606.75;;;18.01;100.00
3590;BME280;1809;48.470;9.226;2022-07-29T01:12:08;96600.44;;;17.97;100.00
3590;BME280;1809;48.470;9.226;2022-07-29T01:14:34;96612.75;;;17.94;100.00
3590;BME280;1809;48.470;9.226;2022-07-29T01:17:10;96603.09;;;17.93;100.00
3590;BME280;1809;48.470;9.226;2022-07-29T01:22:26;96611.19;;;17.93;100.00
3590;BME280;1809;48.470;9.226;2022-07-29T01:27:54;96615.03;;;17.92;100.00
3590;BME280;1809;48.470;9.226;2022-07-29T01:30:26;96608.81;;;17.92;100.00
3590;BME280;1809;48.470;9.226;2022-07-29T01:33:04;96618.16;;;17.94;100.00
3590;BME280;1809;48.470;9.226;2022-07-29T01:35:36;96605.19;;;18.00;100.00
3590;BME280;1809;48.470;9.226;2022-07-29T01:38:17;96623.09;;;18.04;100.00
3590;BME280;1809;48.470;9.226;2022-07-29T01:40:49;96618.03;;;18.03;100.00
3590;BME280;1809;48.470;9.226;2022-07-29T01:43:21;96610.81;;;18.07;100.00
3590;BME280;1809;48.470;9.226;2022-07-29T01:45:56;96620.41;;;18.04;100.00
3590;BME280;1809;48.470;9.226;2022-07-29T01:48:37;96615.88;;;18.08;100.00
3590;BME280;1809;48.470;9.226;2022-07-29T01:51:21;96623.78;;;18.01;100.00
3590;BME280;1809;48.470;9.226;2022-07-29T01:54:24;96628.31;;;17.97;100.00
3590;BME280;1809;48.470;9.226;2022-07-29T01:56:53;96628.78;;;17.87;100.00
3590;BME280;1809;48.470;9.226;2022-07-29T01:59:21;96633.28;;;17.95;100.00
3590;BME280;1809;48.470;9.226;2022-07-29T02:01:48;96630.38;;;17.88;100.00
3590;BME280;1809;48.470;9.226;2022-07-29T02:04:16;96628.78;;;17.87;100.00
3590;BME280;1809;48.470;9.226;2022-07-29T02:06:44;96622.69;;;17.90;100.00
3590;BME280;1809;48.470;9.226;2022-07-29T02:09:12;96622.69;;;17.90;100.00
3590;BME280;1809;48.470;9.226;2022-07-29T02:11:47;96626.75;;;17.96;100.00
3590;BME280;1809;48.470;9.226;2022-07-29T02:14:19;96624.47;;;17.98;100.00
3590;BME280;1809;48.470;9.226;2022-07-29T02:16:47;96619.16;;;18.02;100.00
3590;BME280;1809;48.470;9.226;2022-07-29T02:19:17;96612.28;;;18.04;100.00
3590;BME280;1809;48.470;9.226;2022-07-29T02:21:47;96617.91;;;18.11;100.00
3590;BME280;1809;48.470;9.226;2022-07-29T02:24:14;96625.22;;;18.11;100.00
3590;BME280;1809;48.470;9.226;2022-07-29T02:26:43;96612.66;;;18.18;100.00
3590;BME280;1809;48.470;9.226;2022-07-29T02:29:12;96630.06;;;18.17;100.00
3590;BME280;1809;48.470;9.226;2022-07-29T02:31:41;96620.34;;;18.16;100.00
3590;BME280;1809;48.470;9.226;2022-07-29T02:34:10;96623.06;;;18.16;100.00
3590;BME280;1809;48.470;9.226;2022-07-29T02:36:37;96622.63;;;18.14;100.00
3590;BME280;1809;48.470;9.226;2022-07-29T02:39:07;96613.34;;;18.15;100.00
3590;BME280;1809;48.470;9.226;2022-07-29T02:41:40;96619.47;;;18.12;100.00
3590;BME280;1809;48.470;9.226;2022-07-29T02:44:12;96620.03;;;18.18;100.00
3590;BME280;1809;48.470;9.226;2022-07-29T02:46:49;96616.31;;;18.10;100.00
3590;BME280;1809;48.470;9.226;2022-07-29T02:49:34;96611.25;;;18.09;100.00
3590;BME280;1809;48.470;9.226;2022-07-29T02:52:14;96613.19;;;18.08;100.00
3590;BME280;1809;48.470;9.226;2022-07-29T02:55:18;96613.06;;;18.05;100.00
3590;BME280;1809;48.470;9.226;2022-07-29T02:57:49;96614.31;;;18.07;100.00
3590;BME280;1809;48.470;9.226;2022-07-29T03:00:17;96615.41;;;18.06;100.00
3590;BME280;1809;48.470;9.226;2022-07-29T03:02:50;96613.97;;;18.09;100.00
3590;BME280;1809;48.470;9.226;2022-07-29T03:05:22;96614.72;;;18.09;100.00
3590;BME280;1809;48.470;9.226;2022-07-29T03:08:11;96612.59;;;18.15;100.00
3590;BME280;1809;48.470;9.226;2022-07-29T03:10:43;96619.47;;;18.12;100.00
3590;BME280;1809;48.470;9.226;2022-07-29T03:13:12;96620.78;;;18.18;100.00
3590;BME280;1809;48.470;9.226;2022-07-29T03:15:45;96620.78;;;18.18;100.00
3590;BME280;1809;48.470;9.226;2022-07-29T03:18:11;96620.34;;;18.16;100.00
3590;BME280;1809;48.470;9.226;2022-07-29T03:20:38;96624.44;;;18.10;100.00
3590;BME280;1809;48.470;9.226;2022-07-29T03:23:04;96621.63;;;18.07;100.00
3590;BME280;1809;48.470;9.226;2022-07-29T03:25:30;96622.41;;;18.07;100.00
3590;BME280;1809;48.470;9.226;2022-07-29T03:27:56;96621.41;;;18.12;100.00
3590;BME280;1809;48.470;9.226;2022-07-29T03:30:24;96623.75;;;18.13;100.00
3590;BME280;1809;48.470;9.226;2022-07-29T03:32:51;96622.53;;;18.11;100.00
3590;BME280;1809;48.470;9.226;2022-07-29T03:35:17;96620.03;;;18.06;100.00
3590;BME280;1809;48.470;9.226;2022-07-29T03:37:49;96620.66;;;17.99;100.00
3590;BME280;1809;48.470;9.226;2022-07-29T03:40:22;96621.56;;;17.91;100.00
3590;BME280;1809;48.470;9.226;2022-07-29T03:42:51;96629.00;;;17.94;100.00
3590;BME280;1809;48.470;9.226;2022-07-29T03:45:24;96632.38;;;17.91;100.00
3590;BME280;1809;48.470;9.226;2022-07-29T03:47:54;96635.78;;;17.88;100.00
3590;BME280;1809;48.470;9.226;2022-07-29T03:50:22;96639.53;;;17.84;100.00
3590;BME280;1809;48.470;9.226;2022-07-29T03:52:48;96632.75;;;17.90;100.00
3590;BME280;1809;48.470;9.226;2022-07-29T03:55:15;96633.44;;;17.87;100.00
3590;BME280;1809;48.470;9.226;2022-07-29T03:57:47;96632.41;;;17.79;100.00
3590;BME280;1809;48.470;9.226;2022-07-29T04:00:17;96622.50;;;17.83;100.00
3590;BME280;1809;48.470;9.226;2022-07-29T04:02:43;96624.88;;;17.72;100.00
3590;BME280;1809;48.470;9.226;2022-07-29T04:05:15;96633.09;;;17.76;100.00
3590;BME280;1809;48.470;9.226;2022-07-29T04:07:49;96624.56;;;17.74;100.00
3590;BME280;1809;48.470;9.226;2022-07-29T04:10:15;96626.91;;;17.76;100.00
3590;BME280;1809;48.470;9.226;2022-07-29T04:12:42;96634.47;;;17.70;100.00
3590;BME280;1809;48.470;9.226;2022-07-29T04:15:07;96636.75;;;17.68;100.00
3590;BME280;1809;48.470;9.226;2022-07-29T04:17:33;96636.81;;;17.71;100.00
3590;BME280;1809;48.470;9.226;2022-07-29T04:19:59;96642.44;;;17.79;100.00
3590;BME280;1809;48.470;9.226;2022-07-29T04:22:24;96635.38;;;17.74;100.00
3590;BME280;1809;48.470;9.226;2022-07-29T04:24:50;96635.47;;;17.78;100.00
3590;BME280;1809;48.470;9.226;2022-07-29T04:27:15;96636.31;;;17.94;100.00
3590;BME280;1809;48.470;9.226;2022-07-29T04:29:41;96643.06;;;18.12;100.00
3590;BME280;1809;48.470;9.226;2022-07-29T04:32:06;96646.34;;;18.33;100.00
3590;BME280;1809;48.470;9.226;2022-07-29T04:34:31;96643.03;;;18.52;100.00
3590;BME280;1809;48.470;9.226;2022-07-29T04:36:57;96646.34;;;18.61;100.00
3590;BME280;1809;48.470;9.226;2022-07-29T04:39:22;96646.63;;;18.71;100.00
3590;BME280;1809;48.470;9.226;2022-07-29T04:41:48;96647.09;;;18.89;100.00
3590;BME280;1809;48.470;9.226;2022-07-29T04:44:14;96641.50;;;19.29;100.00
3590;BME280;1809;48.470;9.226;2022-07-29T04:46:39;96645.06;;;19.64;100.00
3590;BME280;1809;48.470;9.226;2022-07-29T04:49:05;96645.16;;;19.87;100.00
3590;BME280;1809;48.470;9.226;2022-07-29T04:51:30;96645.91;;;20.03;100.00
3590;BME280;1809;48.470;9.226;2022-07-29T04:53:56;96648.75;;;19.91;100.00
3590;BME280;1809;48.470;9.226;2022-07-29T04:56:21;96656.22;;;20.13;100.00
3590;BME280;1809;48.470;9.226;2022-07-29T04:58:47;96649.75;;;20.21;100.00
3590;BME280;1809;48.470;9.226;2022-07-29T05:01:12;96659.00;;;20.55;100.00
3590;BME280;1809;48.470;9.226;2022-07-29T05:03:39;96661.66;;;20.93;100.00
3590;BME280;1809;48.470;9.226;2022-07-29T05:06:04;96661.84;;;21.04;100.00
3590;BME280;1809;48.470;9.226;2022-07-29T05:08:30;96656.22;;;20.93;100.00
3590;BME280;1809;48.470;9.226;2022-07-29T05:10:55;96660.06;;;20.92;100.00
3590;BME280;1809;48.470;9.226;2022-07-29T05:13:21;96670.59;;;20.94;100.00
3590;BME280;1809;48.470;9.226;2022-07-29T05:15:46;96668.06;;;20.82;100.00
3590;BME280;1809;48.470;9.226;2022-07-29T05:18:11;96670.50;;;20.68;100.00
3590;BME280;1809;48.470;9.226;2022-07-29T05:20:37;96675.78;;;20.80;100.00
3590;BME280;1809;48.470;9.226;2022-07-29T05:23:02;96669.28;;;21.07;100.00
3590;BME280;1809;48.470;9.226;2022-07-29T05:25:29;96670.03;;;21.27;100.00
3590;BME280;1809;48.470;9.226;2022-07-29T05:27:55;96673.28;;;21.85;100.00
3590;BME280;1809;48.470;9.226;2022-07-29T05:30:21;96678.44;;;22.49;100.00
3590;BME280;1809;48.470;9.226;2022-07-29T05:32:46;96677.44;;;22.65;100.00
3590;BME280;1809;48.470;9.226;2022-07-29T05:35:12;96685.91;;;22.56;100.00
3590;BME280;1809;48.470;9.226;2022-07-29T05:37:38;96693.25;;;23.63;100.00
3590;BME280;1809;48.470;9.226;2022-07-29T05:40:04;96694.13;;;24.42;100.00
3590;BME280;1809;48.470;9.226;2022-07-29T05:42:30;96697.13;;;25.06;100.00
3590;BME280;1809;48.470;9.226;2022-07-29T05:44:55;96688.59;;;25.64;100.00
3590;BME280;1809;48.470;9.226;2022-07-29T05:47:21;96696.38;;;25.97;100.00
3590;BME280;1809;48.470;9.226;2022-07-29T05:49:47;96704.75;;;26.88;100.00
3590;BME280;1809;48.470;9.226;2022-07-29T05:52:12;96702.44;;;26.68;100.00
3590;BME280;1809;48.470;9.226;2022-07-29T05:54:38;96695.59;;;26.18;100.00
3590;BME280;1809;48.470;9.226;2022-07-29T05:57:04;96700.34;;;25.72;100.00
3590;BME280;1809;48.470;9.226;2022-07-29T05:59:30;96702.53;;;24.85;100.00
3590;BME280;1809;48.470;9.226;2022-07-29T06:01:56;96707.03;;;24.45;100.00
3590;BME280;1809;48.470;9.226;2022-07-29T06:04:22;96709.47;;;23.96;100.00
3590;BME280;1809;48.470;9.226;2022-07-29T06:06:51;96705.25;;;23.54;100.00
3590;BME280;1809;48.470;9.226;2022-07-29T06:09:16;96719.25;;;23.09;100.00
3590;BME280;1809;48.470;9.226;2022-07-29T06:11:42;96707.81;;;22.63;100.00
3590;BME280;1809;48.470;9.226;2022-07-29T06:14:08;96708.78;;;22.78;100.00
3590;BME280;1809;48.470;9.226;2022-07-29T06:16:33;96717.22;;;22.39;100.00
3590;BME280;1809;48.470;9.226;2022-07-29T06:19:03;96711.31;;;22.34;100.00
3590;BME280;1809;48.470;9.226;2022-07-29T06:21:29;96713.31;;;22.67;100.00
3590;BME280;1809;48.470;9.226;2022-07-29T06:23:55;96714.97;;;22.75;100.00
3590;BME280;1809;48.470;9.226;2022-07-29T06:26:29;96714.97;;;22.75;100.00
3590;BME280;1809;48.470;9.226;2022-07-29T06:29:04;96716.03;;;22.67;100.00
3590;BME280;1809;48.470;9.226;2022-07-29T06:31:30;96714.63;;;23.17;100.00
3590;BME280;1809;48.470;9.226;2022-07-29T06:33:56;96719.72;;;23.59;100.00
3590;BME280;1809;48.470;9.226;2022-07-29T06:36:22;96726.56;;;24.47;100.00
3590;BME280;1809;48.470;9.226;2022-07-29T06:38:47;96712.13;;;24.43;100.00
3590;BME280;1809;48.470;9.226;2022-07-29T06:41:13;96722.38;;;24.68;100.00
3590;BME280;1809;48.470;9.226;2022-07-29T06:43:42;96728.84;;;25.35;100.00
3590;BME280;1809;48.470;9.226;2022-07-29T06:46:13;96726.84;;;26.38;100.00
3590;BME280;1809;48.470;9.226;2022-07-29T06:48:40;96725.28;;;27.90;100.00
3590;BME280;1809;48.470;9.226;2022-07-29T06:51:08;96727.78;;;28.89;100.00
3590;BME280;1809;48.470;9.226;2022-07-29T06:53:34;96735.78;;;29.64;100.00
3590;BME280;1809;48.470;9.226;2022-07-29T06:56:09;96736.47;;;30.18;100.00
3590;BME280;1809;48.470;9.226;2022-07-29T06:58:35;96743.19;;;30.40;100.00
3590;BME280;1809;48.470;9.226;2022-07-29T07:01:03;96747.16;;;30.39;100.00
3590;BME280;1809;48.470;9.226;2022-07-29T07:03:30;96735.66;;;29.71;100.00
3590;BME280;1809;48.470;9.226;2022-07-29T07:05:57;96752.03;;;29.31;100.00
3590;BME280;1809;48.470;9.226;2022-07-29T07:08:23;96746.81;;;29.64;100.00
3590;BME280;1809;48.470;9.226;2022-07-29T07:10:49;96743.53;;;28.89;100.00
3590;BME280;1809;48.470;9.226;2022-07-29T07:13:15;96758.47;;;28.50;100.00
3590;BME280;1809;48.470;9.226;2022-07-29T07:15:44;96757.09;;;29.03;100.00
3590;BME280;1809;48.470;9.226;2022-07-29T07:18:09;96754.25;;;30.17;100.00
3590;BME280;1809;48.470;9.226;2022-07-29T07:20:35;96756.69;;;29.34;100.00
3590;BME280;1809;48.470;9.226;2022-07-29T07:23:01;96756.38;;;28.99;100.00
3590;BME280;1809;48.470;9.226;2022-07-29T07:25:26;96754.03;;;28.97;100.00
3590;BME280;1809;48.470;9.226;2022-07-29T07:27:52;96758.00;;;29.53;100.00
3590;BME280;1809;48.470;9.226;2022-07-29T07:30:18;96754.50;;;29.49;100.00
3590;BME280;1809;48.470;9.226;2022-07-29T07:32:43;96760.09;;;30.42;100.00
3590;BME280;1809;48.470;9.226;2022-07-29T07:35:10;96755.69;;;30.68;100.00
3590;BME280;1809;48.470;9.226;2022-07-29T07:37:36;96764.78;;;30.22;100.00
3590;BME280;1809;48.470;9.226;2022-07-29T07:40:03;96760.41;;;30.67;100.00
3590;BME280;1809;48.470;9.226;2022-07-29T07:42:29;96753.97;;;30.93;100.00
3590;BME280;1809;48.470;9.226;2022-07-29T07:44:55;96759.09;;;30.75;100.00
3590;BME280;1809;48.470;9.226;2022-07-29T07:47:21;96762.19;;;31.17;100.00
3590;BME280;1809;48.470;9.226;2022-07-29T07:49:51;96755.59;;;31.30;100.00
3590;BME280;1809;48.470;9.226;2022-07-29T07:52:18;96757.63;;;29.78;100.00
3590;BME280;1809;48.470;9.226;2022-07-29T07:54:44;96761.44;;;31.16;100.00
3590;BME280;1809;48.470;9.226;2022-07-29T07:57:11;96754.13;;;31.26;100.00
3590;BME280;1809;48.470;9.226;2022-07-29T07:59:36;96758.00;;;30.89;100.00
3590;BME280;1809;48.470;9.226;2022-07-29T08:02:02;96755.81;;;30.80;100.00
3590;BME280;1809;48.470;9.226;2022-07-29T08:04:28;96762.56;;;30.60;100.00
3590;BME280;1809;48.470;9.226;2022-07-29T08:06:53;96763.41;;;29.60;100.00
3590;BME280;1809;48.470;9.226;2022-07-29T08:09:22;96754.31;;;28.35;100.00
3590;BME280;1809;48.470;9.226;2022-07-29T08:11:49;96767.03;;;28.22;100.00
3590;BME280;1809;48.470;9.226;2022-07-29T08:14:17;96763.97;;;28.13;100.00
3590;BME280;1809;48.470;9.226;2022-07-29T08:16:43;96759.94;;;27.76;100.00
3590;BME280;1809;48.470;9.226;2022-07-29T08:19:09;96759.16;;;27.72;100.00
3590;BME280;1809;48.470;9.226;2022-07-29T08:21:35;96759.47;;;27.23;100.00
3590;BME280;1809;48.470;9.226;2022-07-29T08:24:01;96758.66;;;27.26;100.00
3590;BME280;1809;48.470;9.226;2022-07-29T08:26:48;96757.53;;;27.20;100.00
3590;BME280;1809;48.470;9.226;2022-07-29T08:29:14;96755.63;;;27.06;100.00
3590;BME280;1809;48.470;9.226;2022-07-29T08:31:40;96752.59;;;26.87;100.00
3590;BME280;1809;48.470;9.226;2022-07-29T08:34:08;96752.19;;;26.85;100.00
3590;BME280;1809;48.470;9.226;2022-07-29T08:36:34;96756.94;;;26.81;100.00
3590;BME280;1809;48.470;9.226;2022-07-29T08:39:00;96751.38;;;26.95;100.00
3590;BME280;1809;48.470;9.226;2022-07-29T08:41:26;96758.81;;;26.98;100.00
3590;BME280;1809;48.470;9.226;2022-07-29T08:43:52;96754.81;;;27.13;100.00
3590;BME280;1809;48.470;9.226;2022-07-29T08:46:19;96764.72;;;26.93;100.00
3590;BME280;1809;48.470;9.226;2022-07-29T08:48:46;96765.13;;;26.84;100.00
3590;BME280;1809;48.470;9.226;2022-07-29T08:51:18;96774.63;;;26.62;100.00
3590;BME280;1809;48.470;9.226;2022-07-29T08:53:45;96773.84;;;26.58;100.00
3590;BME280;1809;48.470;9.226;2022-07-29T08:56:15;96778.59;;;26.43;100.00
3590;BME280;1809;48.470;9.226;2022-07-29T08:58:45;96770.38;;;26.29;100.00
3590;BME280;1809;48.470;9.226;2022-07-29T09:01:14;96780.94;;;26.34;100.00
3590;BME280;1809;48.470;9.226;2022-07-29T09:03:43;96773.91;;;26.26;100.00
3590;BME280;1809;48.470;9.226;2022-07-29T09:06:13;96782.91;;;25.98;100.00
3590;BME280;1809;48.470;9.226;2022-07-29T09:08:39;96780.56;;;26.04;100.00
3590;BME280;1809;48.470;9.226;2022-07-29T09:11:05;96788.03;;;26.21;100.00
3590;BME280;1809;48.470;9.226;2022-07-29T09:13:33;96782.88;;;26.37;100.00
3590;BME280;1809;48.470;9.226;2022-07-29T09:15:58;96769.94;;;26.48;100.00
3590;BME280;1809;48.470;9.226;2022-07-29T09:21:00;96774.56;;;26.72;100.00
3590;BME280;1809;48.470;9.226;2022-07-29T09:24:13;96772.09;;;27.10;100.00
3590;BME280;1809;48.470;9.226;2022-07-29T09:26:43;96772.63;;;27.56;100.00
3590;BME280;1809;48.470;9.226;2022-07-29T09:29:20;96776.50;;;27.66;100.00
3590;BME280;1809;48.470;9.226;2022-07-29T09:31:48;96769.13;;;28.04;100.00
3590;BME280;1809;48.470;9.226;2022-07-29T09:34:16;96766.34;;;28.52;100.00
3590;BME280;1809;48.470;9.226;2022-07-29T09:36:44;96767.75;;;28.70;100.00
3590;BME280;1809;48.470;9.226;2022-07-29T09:39:10;96767.00;;;28.66;100.00
3590;BME280;1809;48.470;9.226;2022-07-29T09:41:51;96767.78;;;28.63;100.00
3590;BME280;1809;48.470;9.226;2022-07-29T09:44:21;96770.03;;;28.75;100.00
3590;BME280;1809;48.470;9.226;2022-07-29T09:46:59;96768.16;;;28.99;100.00
3590;BME280;1809;48.470;9.226;2022-07-29T09:49:31;96768.28;;;29.49;100.00
3590;BME280;1809;48.470;9.226;2022-07-29T09:54:35;96761.66;;;28.86;100.00
3590;BME280;1809;48.470;9.226;2022-07-29T09:57:06;96762.16;;;29.08;100.00
3590;BME280;1809;48.470;9.226;2022-07-29T09:59:32;96752.50;;;28.93;100.00
3590;BME280;1809;48.470;9.226;2022-07-29T10:01:59;96757.88;;;28.32;100.00
3590;BME280;1809;48.470;9.226;2022-07-29T10:04:39;96746.50;;;27.86;100.00
3590;BME280;1809;48.470;9.226;2022-07-29T10:07:06;96749.41;;;28.16;100.00
3590;BME280;1809;48.470;9.226;2022-07-29T10:09:32;96744.03;;;28.80;100.00
3590;BME280;1809;48.470;9.226;2022-07-29T10:12:07;96749.66;;;29.30;100.00
3590;BME280;1809;48.470;9.226;2022-07-29T10:14:35;96731.63;;;29.25;100.00
3590;BME280;1809;48.470;9.226;2022-07-29T10:17:02;96737.28;;;29.68;100.00
3590;BME280;1809;48.470;9.226;2022-07-29T10:19:32;96737.75;;;29.90;100.00
3590;BME280;1809;48.470;9.226;2022-07-29T10:22:04;96728.56;;;29.73;100.00
3590;BME280;1809;48.470;9.226;2022-07-29T10:24:34;96724.31;;;29.42;100.00
3590;BME280;1809;48.470;9.226;2022-07-29T10:27:03;96729.81;;;29.12;100.00
3590;BME280;1809;48.470;9.226;2022-07-29T10:29:29;96730.22;;;29.14;100.00
3590;BME280;1809;48.470;9.226;2022-07-29T10:43:27;96732.28;;;29.86;100.00
3590;BME280;1809;48.470;9.226;2022-07-29T10:45:58;96732.00;;;30.04;100.00
3590;BME280;1809;48.470;9.226;2022-07-29T10:48:24;96731.75;;;30.18;100.00
3590;BME280;1809;48.470;9.226;2022-07-29T10:51:01;96716.03;;;30.58;95.70
3590;BME280;1809;48.470;9.226;2022-07-29T10:53:52;96710.78;;;30.83;97.01
3590;BME280;1809;48.470;9.226;2022-07-29T11:01:47;96712.63;;;31.10;93.33
3590;BME280;1809;48.470;9.226;2022-07-29T11:04:15;96704.72;;;31.28;91.38
3590;BME280;1809;48.470;9.226;2022-07-29T11:09:28;96695.34;;;31.74;88.06
3590;BME280;1809;48.470;9.226;2022-07-29T11:11:59;96706.72;;;31.08;93.09
3590;BME280;1809;48.470;9.226;2022-07-29T11:17:21;96711.28;;;31.34;86.94
3590;BME280;1809;48.470;9.226;2022-07-29T11:19:47;96716.66;;;31.41;88.73
3590;BME280;1809;48.470;9.226;2022-07-29T11:22:34;96712.97;;;30.92;91.74
3590;BME280;1809;48.470;9.226;2022-07-29T11:25:13;96701.41;;;30.38;98.29
3590;BME280;1809;48.470;9.226;2022-07-29T11:27:39;96699.25;;;30.49;99.90
3590;BME280;1809;48.470;9.226;2022-07-29T11:30:05;96701.59;;;30.51;98.62
3590;BME280;1809;48.470;9.226;2022-07-29T11:32:39;96698.41;;;30.52;99.50
3590;BME280;1809;48.470;9.226;2022-07-29T11:35:12;96698.97;;;31.03;100.00
3590;BME280;1809;48.470;9.226;2022-07-29T11:37:38;96708.53;;;30.78;97.43
3590;BME280;1809;48.470;9.226;2022-07-29T11:45:00;96709.69;;;30.38;100.00
3590;BME280;1809;48.470;9.226;2022-07-29T11:47:27;96717.78;;;30.49;100.00
3590;BME280;1809;48.470;9.226;2022-07-29T11:49:55;96716.44;;;29.14;100.00
3590;BME280;1809;48.470;9.226;2022-07-29T11:52:21;96717.34;;;29.04;100.00
3590;BME280;1809;48.470;9.226;2022-07-29T11:54:48;96718.34;;;28.87;100.00
3590;BME280;1809;48.470;9.226;2022-07-29T11:57:18;96716.16;;;28.74;100.00
3590;BME280;1809;48.470;9.226;2022-07-29T11:59:45;96715.53;;;28.60;100.00
3590;BME280;1809;48.470;9.226;2022-07-29T12:02:12;96712.16;;;28.08;100.00
3590;BME280;1809;48.470;9.226;2022-07-29T12:04:54;96721.78;;;27.82;100.00
3590;BME280;1809;48.470;9.226;2022-07-29T12:07:28;96727.81;;;27.66;100.00
3590;BME280;1809;48.470;9.226;2022-07-29T12:09:53;96725.84;;;27.05;100.00
3590;BME280;1809;48.470;9.226;2022-07-29T12:12:19;96717.38;;;26.67;100.00
3590;BME280;1809;48.470;9.226;2022-07-29T12:14:45;96730.03;;;26.30;100.00
3590;BME280;1809;48.470;9.226;2022-07-29T12:17:31;96731.63;;;25.74;100.00
3590;BME280;1809;48.470;9.226;2022-07-29T12:19:59;96729.22;;;25.44;100.00
3590;BME280;1809;48.470;9.226;2022-07-29T12:22:26;96724.91;;;25.29;100.00
3590;BME280;1809;48.470;9.226;2022-07-29T12:24:52;96733.13;;;25.15;100.00
3590;BME280;1809;48.470;9.226;2022-07-29T12:27:17;96734.59;;;24.91;100.00
3590;BME280;1809;48.470;9.226;2022-07-29T12:29:43;96748.72;;;24.97;100.00
3590;BME280;1809;48.470;9.226;2022-07-29T12:32:08;96760.84;;;24.99;100.00
3590;BME280;1809;48.470;9.226;2022-07-29T12:34:34;96778.81;;;25.04;100.00
3590;BME280;1809;48.470;9.226;2022-07-29T12:37:00;96773.81;;;24.44;100.00
3590;BME280;1809;48.470;9.226;2022-07-29T12:39:26;96772.34;;;22.82;100.00
3590;BME280;1809;48.470;9.226;2022-07-29T12:41:53;96772.28;;;21.96;100.00
3590;BME280;1809;48.470;9.226;2022-07-29T12:44:18;96762.34;;;20.59;100.00
3590;BME280;1809;48.470;9.226;2022-07-29T12:46:44;96751.66;;;20.15;100.00
3590;BME280;1809;48.470;9.226;2022-07-29T12:49:21;96753.59;;;19.80;100.00
3590;BME280;1809;48.470;9.226;2022-07-29T12:51:46;96765.22;;;19.65;100.00
3590;BME280;1809;48.470;9.226;2022-07-29T12:54:14;96761.66;;;19.76;100.00
3590;BME280;1809;48.470;9.226;2022-07-29T12:56:41;96769.91;;;19.99;100.00
3590;BME280;1809;48.470;9.226;2022-07-29T12:59:14;96757.16;;;20.34;100.00
3590;BME280;1809;48.470;9.226;2022-07-29T13:01:39;96763.84;;;20.56;100.00
3590;BME280;1809;48.470;9.226;2022-07-29T13:04:05;96769.50;;;20.86;100.00
3590;BME280;1809;48.470;9.226;2022-07-29T13:06:32;96767.72;;;21.13;100.00
3590;BME280;1809;48.470;9.226;2022-07-29T13:11:38;96759.78;;;21.27;100.00
3590;BME280;1809;48.470;9.226;2022-07-29T13:14:07;96754.50;;;21.57;100.00
3590;BME280;1809;48.470;9.226;2022-07-29T13:16:34;96749.13;;;21.60;100.00
3590;BME280;1809;48.470;9.226;2022-07-29T13:19:17;96742.09;;;22.08;100.00
3590;BME280;1809;48.470;9.226;2022-07-29T13:21:45;96734.81;;;21.89;100.00
3590;BME280;1809;48.470;9.226;2022-07-29T13:24:10;96728.75;;;22.29;100.00
3590;BME280;1809;48.470;9.226;2022-07-29T13:26:39;96733.03;;;22.57;100.00
3590;BME280;1809;48.470;9.226;2022-07-29T13:29:05;96724.75;;;22.79;100.00
3590;BME280;1809;48.470;9.226;2022-07-29T13:31:31;96729.31;;;23.05;100.00
3590;BME280;1809;48.470;9.226;2022-07-29T13:33:56;96729.59;;;23.33;100.00
3590;BME280;1809;48.470;9.226;2022-07-29T13:36:21;96733.59;;;23.87;100.00
3590;BME280;1809;48.470;9.226;2022-07-29T13:38:47;96728.59;;;23.96;100.00
3590;BME280;1809;48.470;9.226;2022-07-29T13:41:12;96739.81;;;23.84;100.00
3590;BME280;1809;48.470;9.226;2022-07-29T13:43:37;96760.53;;;23.85;100.00
3590;BME280;1809;48.470;9.226;2022-07-29T13:46:03;96766.34;;;23.39;100.00
3590;BME280;1809;48.470;9.226;2022-07-29T13:48:28;96752.88;;;23.20;100.00
3590;BME280;1809;48.470;9.226;2022-07-29T13:50:53;96747.84;;;23.22;100.00
3590;BME280;1809;48.470;9.226;2022-07-29T13:53:19;96748.06;;;23.07;100.00
3590;BME280;1809;48.470;9.226;2022-07-29T13:55:44;96755.59;;;23.53;100.00
3590;BME280;1809;48.470;9.226;2022-07-29T13:58:09;96745.50;;;23.61;100.00
3590;BME280;1809;48.470;9.226;2022-07-29T14:00:35;96759.50;;;23.56;100.00